Terminal Aerodrome Forecast
Issued by NWS State College, PA

Home | Current Version | Previous Version | Text Only | Print | Product List | Glossary On
Versions: 1 2 3 4 5 6 7 8 9 10 11 12 13 14 15 16 17 18 19 20 21 22 23 24 25 26 27 28 29 30 31
000
FTUS41 KCTP 190240 AAA
TAFMDT
TAF AMD
KMDT 190240Z 1903/1924 10003KT P6SM SCT250
     FM191030 14004KT P6SM BKN150 WS020/19035KT
     FM191300 14003KT P6SM OVC050
     FM191700 18010KT 4SM -SHRA BR BKN025 OVC040 WS020/20040KT
     FM192300 18010KT 5SM BR BKN025 OVC040=

USA.gov is the U.S. government's official web portal to all federal, state and local government web resources and services.